Weather at Megara Airport

Public forecast

Using degrees Celsius for public forecast. Weather courtesy of forecast.io.

Closest aviation weather report (METAR) to Megara Airport

Closest report is Elefsis Airport, 10.3 nm (19.1 km) ENE. Retrieved 2020/10/23 10:20 UTC (30 minutes ago):

LGEL 231020Z 33008KT CAVOK 25/09 Q1019

Closest aviation forecast (TAF) to Megara Airport

Closest forecast is Elefsis Airport, 10.3 nm (19.1 km) ENE. Retrieved 2020/10/23 06:12 UTC (5 hours ago):

TAF LGEL 230500Z 2306/2406 34008KT 9999 FEW025 BECMG 2310/2312 18008KT